sensor_id;sensor_type;location;lat;lon;timestamp;pressure;altitude;pressure_sealevel;temperature;humidity
41140;BME280;26881;48.784;9.192;2023-07-20T00:01:21;98442.16;;;20.82;47.26
41140;BME280;26881;48.784;9.192;2023-07-20T00:06:43;98457.47;;;20.62;47.82
41140;BME280;26881;48.784;9.192;2023-07-20T00:12:05;98448.63;;;20.54;46.57
41140;BME280;26881;48.784;9.192;2023-07-20T00:17:27;98453.72;;;20.47;45.73
41140;BME280;26881;48.784;9.192;2023-07-20T00:22:49;98456.78;;;20.34;45.17
41140;BME280;26881;48.784;9.192;2023-07-20T00:28:12;98457.59;;;20.35;44.62
41140;BME280;26881;48.784;9.192;2023-07-20T00:33:34;98458.03;;;20.22;44.41
41140;BME280;26881;48.784;9.192;2023-07-20T00:38:56;98457.59;;;20.09;44.62
41140;BME280;26881;48.784;9.192;2023-07-20T00:44:18;98452.06;;;20.02;45.03
41140;BME280;26881;48.784;9.192;2023-07-20T00:49:40;98458.22;;;20.03;44.96
41140;BME280;26881;48.784;9.192;2023-07-20T00:55:02;98456.31;;;19.95;45.19
41140;BME280;26881;48.784;9.192;2023-07-20T01:00:24;98469.75;;;19.93;45.49
41140;BME280;26881;48.784;9.192;2023-07-20T01:05:54;98464.28;;;19.95;45.31
41140;BME280;26881;48.784;9.192;2023-07-20T01:11:38;98462.53;;;19.86;45.85
41140;BME280;26881;48.784;9.192;2023-07-20T01:17:02;98464.06;;;19.70;46.23
41140;BME280;26881;48.784;9.192;2023-07-20T01:33:35;98461.22;;;19.54;46.98
41140;BME280;26881;48.784;9.192;2023-07-20T01:38:57;98455.56;;;19.39;47.72
41140;BME280;26881;48.784;9.192;2023-07-20T01:44:19;98460.06;;;19.38;47.79
41140;BME280;26881;48.784;9.192;2023-07-20T01:49:41;98452.63;;;19.24;48.55
41140;BME280;26881;48.784;9.192;2023-07-20T01:55:03;98453.81;;;19.12;48.89
41140;BME280;26881;48.784;9.192;2023-07-20T02:00:26;98455.06;;;19.08;49.34
41140;BME280;26881;48.784;9.192;2023-07-20T02:05:48;98462.63;;;19.03;49.34
41140;BME280;26881;48.784;9.192;2023-07-20T02:11:10;98458.78;;;18.87;49.93
41140;BME280;26881;48.784;9.192;2023-07-20T02:16:31;98459.19;;;18.92;49.93
41140;BME280;26881;48.784;9.192;2023-07-20T02:21:53;98466.03;;;18.85;50.40
41140;BME280;26881;48.784;9.192;2023-07-20T02:27:16;98462.31;;;18.78;50.53
41140;BME280;26881;48.784;9.192;2023-07-20T02:32:38;98461.19;;;18.71;51.10
41140;BME280;26881;48.784;9.192;2023-07-20T02:38:00;98456.78;;;18.52;51.83
41140;BME280;26881;48.784;9.192;2023-07-20T02:43:22;98469.94;;;18.44;52.21
41140;BME280;26881;48.784;9.192;2023-07-20T02:48:44;98465.63;;;18.33;52.34
41140;BME280;26881;48.784;9.192;2023-07-20T02:54:06;98478.91;;;18.14;53.02
41140;BME280;26881;48.784;9.192;2023-07-20T02:59:28;98481.41;;;18.05;53.38
41140;BME280;26881;48.784;9.192;2023-07-20T03:04:50;98478.75;;;18.05;53.60
41140;BME280;26881;48.784;9.192;2023-07-20T03:10:12;98492.28;;;17.93;53.88
41140;BME280;26881;48.784;9.192;2023-07-20T03:15:34;98484.75;;;17.88;54.36
41140;BME280;26881;48.784;9.192;2023-07-20T03:20:56;98486.69;;;17.96;54.08
41140;BME280;26881;48.784;9.192;2023-07-20T03:26:19;98487.94;;;17.92;54.29
41140;BME280;26881;48.784;9.192;2023-07-20T03:31:41;98488.78;;;17.82;54.69
41140;BME280;26881;48.784;9.192;2023-07-20T03:37:03;98495.97;;;17.80;54.80
41140;BME280;26881;48.784;9.192;2023-07-20T03:42:26;98488.88;;;17.71;54.93
41140;BME280;26881;48.784;9.192;2023-07-20T03:47:48;98496.78;;;17.61;55.77
41140;BME280;26881;48.784;9.192;2023-07-20T03:53:10;98501.84;;;17.74;55.33
41140;BME280;26881;48.784;9.192;2023-07-20T03:58:32;98498.78;;;17.79;55.58
41140;BME280;26881;48.784;9.192;2023-07-20T04:03:53;98501.03;;;17.83;55.49
41140;BME280;26881;48.784;9.192;2023-07-20T04:09:15;98495.19;;;17.89;55.21
41140;BME280;26881;48.784;9.192;2023-07-20T04:14:37;98508.00;;;17.84;55.44
41140;BME280;26881;48.784;9.192;2023-07-20T04:19:59;98508.16;;;17.93;55.53
41140;BME280;26881;48.784;9.192;2023-07-20T04:25:21;98515.22;;;18.02;55.32
41140;BME280;26881;48.784;9.192;2023-07-20T04:30:43;98500.47;;;17.99;55.32
41140;BME280;26881;48.784;9.192;2023-07-20T04:36:05;98512.59;;;18.02;55.69
41140;BME280;26881;48.784;9.192;2023-07-20T04:41:27;98519.28;;;18.25;54.99
41140;BME280;26881;48.784;9.192;2023-07-20T04:46:49;98512.03;;;18.37;54.38
41140;BME280;26881;48.784;9.192;2023-07-20T04:52:11;98506.84;;;18.45;54.39
41140;BME280;26881;48.784;9.192;2023-07-20T04:57:33;98511.84;;;18.58;54.14
41140;BME280;26881;48.784;9.192;2023-07-20T05:02:55;98510.00;;;18.68;53.62
41140;BME280;26881;48.784;9.192;2023-07-20T05:08:17;98514.59;;;18.66;54.39
41140;BME280;26881;48.784;9.192;2023-07-20T05:13:40;98509.69;;;18.91;53.33
41140;BME280;26881;48.784;9.192;2023-07-20T05:19:02;98502.41;;;19.03;53.05
41140;BME280;26881;48.784;9.192;2023-07-20T05:24:24;98506.59;;;19.33;52.29
41140;BME280;26881;48.784;9.192;2023-07-20T05:29:46;98502.34;;;19.40;52.29
41140;BME280;26881;48.784;9.192;2023-07-20T05:35:08;98499.88;;;19.56;51.51
41140;BME280;26881;48.784;9.192;2023-07-20T05:40:30;98503.88;;;19.70;51.31
41140;BME280;26881;48.784;9.192;2023-07-20T05:45:52;98499.94;;;19.74;51.45
41140;BME280;26881;48.784;9.192;2023-07-20T05:51:14;98505.00;;;19.86;51.11
41140;BME280;26881;48.784;9.192;2023-07-20T05:56:37;98511.00;;;20.06;50.86
41140;BME280;26881;48.784;9.192;2023-07-20T06:01:58;98507.19;;;20.26;50.23
41140;BME280;26881;48.784;9.192;2023-07-20T06:07:20;98504.72;;;20.51;50.08
41140;BME280;26881;48.784;9.192;2023-07-20T06:12:42;98512.19;;;20.47;49.35
41140;BME280;26881;48.784;9.192;2023-07-20T06:18:04;98514.31;;;20.70;48.90
41140;BME280;26881;48.784;9.192;2023-07-20T06:23:26;98512.56;;;20.78;49.01
41140;BME280;26881;48.784;9.192;2023-07-20T06:28:48;98513.38;;;21.05;48.86
41140;BME280;26881;48.784;9.192;2023-07-20T06:34:10;98515.31;;;20.95;48.61
41140;BME280;26881;48.784;9.192;2023-07-20T06:39:32;98510.34;;;20.66;50.09
41140;BME280;26881;48.784;9.192;2023-07-20T06:44:57;98514.97;;;20.90;49.73
41140;BME280;26881;48.784;9.192;2023-07-20T06:50:19;98504.69;;;20.95;49.69
41140;BME280;26881;48.784;9.192;2023-07-20T06:55:44;98510.66;;;20.89;50.06
41140;BME280;26881;48.784;9.192;2023-07-20T07:01:11;98503.97;;;21.19;49.33
41140;BME280;26881;48.784;9.192;2023-07-20T07:06:32;98513.06;;;21.08;49.70
41140;BME280;26881;48.784;9.192;2023-07-20T07:11:54;98514.41;;;21.12;49.55
41140;BME280;26881;48.784;9.192;2023-07-20T07:17:16;98501.81;;;21.14;49.61
41140;BME280;26881;48.784;9.192;2023-07-20T07:22:41;98501.63;;;21.16;48.76
41140;BME280;26881;48.784;9.192;2023-07-20T07:28:06;98496.22;;;21.34;48.77
41140;BME280;26881;48.784;9.192;2023-07-20T07:33:28;98498.50;;;21.71;48.47
41140;BME280;26881;48.784;9.192;2023-07-20T07:38:50;98484.31;;;21.46;48.39
41140;BME280;26881;48.784;9.192;2023-07-20T07:44:32;98489.66;;;21.62;47.32
41140;BME280;26881;48.784;9.192;2023-07-20T07:49:54;98482.72;;;21.94;47.10
41140;BME280;26881;48.784;9.192;2023-07-20T07:55:16;98485.78;;;22.24;46.09
41140;BME280;26881;48.784;9.192;2023-07-20T08:00:39;98474.44;;;22.22;45.79
41140;BME280;26881;48.784;9.192;2023-07-20T08:06:01;98467.66;;;22.83;44.13
41140;BME280;26881;48.784;9.192;2023-07-20T08:11:26;98482.75;;;23.16;43.62
41140;BME280;26881;48.784;9.192;2023-07-20T08:16:48;98473.13;;;23.06;44.50
41140;BME280;26881;48.784;9.192;2023-07-20T08:22:10;98465.28;;;23.05;42.81
41140;BME280;26881;48.784;9.192;2023-07-20T08:27:32;98464.25;;;23.14;41.78
41140;BME280;26881;48.784;9.192;2023-07-20T08:32:53;98465.31;;;22.97;42.29
41140;BME280;26881;48.784;9.192;2023-07-20T08:38:15;98475.28;;;23.11;43.03
41140;BME280;26881;48.784;9.192;2023-07-20T08:43:42;98472.03;;;23.24;41.58
41140;BME280;26881;48.784;9.192;2023-07-20T08:49:06;98475.13;;;23.04;41.97
41140;BME280;26881;48.784;9.192;2023-07-20T08:54:30;98457.03;;;23.54;41.71
41140;BME280;26881;48.784;9.192;2023-07-20T08:59:54;98459.19;;;24.28;40.28
41140;BME280;26881;48.784;9.192;2023-07-20T09:05:16;98455.47;;;24.14;39.19
41140;BME280;26881;48.784;9.192;2023-07-20T09:10:38;98461.47;;;24.16;39.72
41140;BME280;26881;48.784;9.192;2023-07-20T09:16:00;98456.78;;;24.56;39.18
41140;BME280;26881;48.784;9.192;2023-07-20T09:21:23;98455.78;;;24.57;37.76
41140;BME280;26881;48.784;9.192;2023-07-20T09:26:46;98456.09;;;23.78;39.09
41140;BME280;26881;48.784;9.192;2023-07-20T09:32:12;98450.34;;;24.42;38.37
41140;BME280;26881;48.784;9.192;2023-07-20T09:37:47;98442.66;;;24.92;36.65
41140;BME280;26881;48.784;9.192;2023-07-20T09:43:11;98458.47;;;24.34;37.12
41140;BME280;26881;48.784;9.192;2023-07-20T09:48:35;98456.88;;;24.25;37.42
41140;BME280;26881;48.784;9.192;2023-07-20T09:54:17;98443.78;;;24.83;35.00
41140;BME280;26881;48.784;9.192;2023-07-20T09:59:41;98432.41;;;25.10;34.32
41140;BME280;26881;48.784;9.192;2023-07-20T10:05:04;98433.03;;;25.12;35.12
41140;BME280;26881;48.784;9.192;2023-07-20T10:10:26;98433.91;;;24.98;35.83
41140;BME280;26881;48.784;9.192;2023-07-20T10:15:59;98427.72;;;25.27;34.47
41140;BME280;26881;48.784;9.192;2023-07-20T10:21:25;98412.38;;;25.79;33.50
41140;BME280;26881;48.784;9.192;2023-07-20T10:26:50;98413.34;;;25.93;31.92
41140;BME280;26881;48.784;9.192;2023-07-20T10:32:12;98417.19;;;25.69;31.83
41140;BME280;26881;48.784;9.192;2023-07-20T10:43:11;98393.59;;;26.91;30.77
41140;BME280;26881;48.784;9.192;2023-07-20T10:48:33;98380.78;;;26.52;30.72
41140;BME280;26881;48.784;9.192;2023-07-20T10:53:58;98385.53;;;26.91;29.71
41140;BME280;26881;48.784;9.192;2023-07-20T10:59:36;98374.63;;;26.23;30.41
41140;BME280;26881;48.784;9.192;2023-07-20T11:05:00;98381.28;;;26.06;31.61
41140;BME280;26881;48.784;9.192;2023-07-20T11:10:23;98376.22;;;27.42;28.48
41140;BME280;26881;48.784;9.192;2023-07-20T11:21:19;98373.56;;;27.56;27.08
41140;BME280;26881;48.784;9.192;2023-07-20T11:26:43;98370.69;;;28.24;27.23
41140;BME280;26881;48.784;9.192;2023-07-20T11:32:06;98368.03;;;29.40;24.91
41140;BME280;26881;48.784;9.192;2023-07-20T11:37:28;98353.44;;;29.87;25.28
41140;BME280;26881;48.784;9.192;2023-07-20T11:42:51;98346.41;;;30.48;24.42
41140;BME280;26881;48.784;9.192;2023-07-20T11:48:16;98357.59;;;29.19;25.05
41140;BME280;26881;48.784;9.192;2023-07-20T11:53:38;98349.81;;;28.12;26.38
41140;BME280;26881;48.784;9.192;2023-07-20T11:59:01;98343.56;;;28.52;25.78
41140;BME280;26881;48.784;9.192;2023-07-20T12:04:24;98327.81;;;30.76;24.00
41140;BME280;26881;48.784;9.192;2023-07-20T12:10:23;98326.78;;;30.96;23.14
41140;BME280;26881;48.784;9.192;2023-07-20T12:15:46;98313.50;;;30.57;23.88
41140;BME280;26881;48.784;9.192;2023-07-20T12:21:08;98299.56;;;32.69;21.14
41140;BME280;26881;48.784;9.192;2023-07-20T12:26:31;98312.78;;;33.23;20.15
41140;BME280;26881;48.784;9.192;2023-07-20T12:31:53;98317.38;;;31.28;20.74
41140;BME280;26881;48.784;9.192;2023-07-20T12:37:18;98306.09;;;29.66;24.03
41140;BME280;26881;48.784;9.192;2023-07-20T12:42:39;98299.41;;;31.34;21.88
41140;BME280;26881;48.784;9.192;2023-07-20T12:48:01;98302.00;;;32.06;21.68
41140;BME280;26881;48.784;9.192;2023-07-20T12:53:23;98278.47;;;33.79;20.03
41140;BME280;26881;48.784;9.192;2023-07-20T12:58:45;98271.22;;;34.90;18.32
41140;BME280;26881;48.784;9.192;2023-07-20T13:04:07;98285.34;;;30.83;21.22
41140;BME280;26881;48.784;9.192;2023-07-20T13:09:35;98278.09;;;31.26;21.74
41140;BME280;26881;48.784;9.192;2023-07-20T13:14:57;98257.75;;;34.29;20.26
41140;BME280;26881;48.784;9.192;2023-07-20T13:20:22;98248.72;;;35.54;17.85
41140;BME280;26881;48.784;9.192;2023-07-20T13:25:44;98255.69;;;36.87;16.26
41140;BME280;26881;48.784;9.192;2023-07-20T13:31:06;98267.47;;;34.91;17.19
41140;BME280;26881;48.784;9.192;2023-07-20T13:36:32;98257.00;;;36.06;17.13
41140;BME280;26881;48.784;9.192;2023-07-20T13:41:57;98257.22;;;34.10;17.98
41140;BME280;26881;48.784;9.192;2023-07-20T13:47:19;98254.41;;;33.83;18.60
41140;BME280;26881;48.784;9.192;2023-07-20T13:52:43;98239.78;;;34.06;17.88
41140;BME280;26881;48.784;9.192;2023-07-20T13:58:04;98234.44;;;35.36;17.19
41140;BME280;26881;48.784;9.192;2023-07-20T14:03:26;98230.63;;;34.78;17.06
41140;BME280;26881;48.784;9.192;2023-07-20T14:08:48;98222.13;;;36.66;15.94
41140;BME280;26881;48.784;9.192;2023-07-20T14:14:11;98230.97;;;34.59;17.69
41140;BME280;26881;48.784;9.192;2023-07-20T14:19:33;98211.31;;;37.07;16.18
41140;BME280;26881;48.784;9.192;2023-07-20T14:24:55;98208.88;;;38.48;14.52
41140;BME280;26881;48.784;9.192;2023-07-20T14:30:20;98215.13;;;37.58;14.78
41140;BME280;26881;48.784;9.192;2023-07-20T14:35:42;98205.28;;;37.51;15.35
41140;BME280;26881;48.784;9.192;2023-07-20T14:41:03;98210.16;;;37.80;14.11
41140;BME280;26881;48.784;9.192;2023-07-20T14:46:28;98203.91;;;37.80;14.17
41140;BME280;26881;48.784;9.192;2023-07-20T14:51:51;98201.09;;;36.57;15.43
41140;BME280;26881;48.784;9.192;2023-07-20T14:57:14;98199.50;;;35.98;16.00
41140;BME280;26881;48.784;9.192;2023-07-20T15:02:37;98212.81;;;35.94;15.61
41140;BME280;26881;48.784;9.192;2023-07-20T15:07:59;98213.34;;;34.40;16.71
41140;BME280;26881;48.784;9.192;2023-07-20T15:13:21;98194.13;;;34.19;16.73
41140;BME280;26881;48.784;9.192;2023-07-20T15:18:43;98193.00;;;34.92;16.14
41140;BME280;26881;48.784;9.192;2023-07-20T15:24:09;98182.78;;;35.36;16.06
41140;BME280;26881;48.784;9.192;2023-07-20T15:29:31;98174.44;;;35.91;15.90
41140;BME280;26881;48.784;9.192;2023-07-20T15:34:56;98167.50;;;35.25;16.35
41140;BME280;26881;48.784;9.192;2023-07-20T15:40:18;98164.41;;;34.84;16.69
41140;BME280;26881;48.784;9.192;2023-07-20T15:45:40;98163.63;;;34.89;16.48
41140;BME280;26881;48.784;9.192;2023-07-20T15:51:04;98157.59;;;35.51;15.48
41140;BME280;26881;48.784;9.192;2023-07-20T15:56:26;98150.41;;;34.97;16.25
41140;BME280;26881;48.784;9.192;2023-07-20T16:01:48;98158.84;;;33.42;17.75
41140;BME280;26881;48.784;9.192;2023-07-20T16:07:11;98154.97;;;32.41;18.33
41140;BME280;26881;48.784;9.192;2023-07-20T16:12:33;98145.06;;;31.54;19.88
41140;BME280;26881;48.784;9.192;2023-07-20T16:17:55;98148.28;;;30.55;21.59
41140;BME280;26881;48.784;9.192;2023-07-20T16:23:17;98135.38;;;30.27;21.52
41140;BME280;26881;48.784;9.192;2023-07-20T16:28:39;98126.16;;;29.68;22.11
41140;BME280;26881;48.784;9.192;2023-07-20T16:34:01;98126.03;;;29.12;22.25
41140;BME280;26881;48.784;9.192;2023-07-20T16:39:26;98127.59;;;28.95;22.83
41140;BME280;26881;48.784;9.192;2023-07-20T16:44:50;98119.41;;;28.58;23.13
41140;BME280;26881;48.784;9.192;2023-07-20T16:50:12;98124.31;;;28.23;23.04
41140;BME280;26881;48.784;9.192;2023-07-20T16:55:33;98123.47;;;27.77;23.47
41140;BME280;26881;48.784;9.192;2023-07-20T17:01:02;98117.78;;;27.20;24.34
41140;BME280;26881;48.784;9.192;2023-07-20T17:06:26;98120.88;;;27.10;24.53
41140;BME280;26881;48.784;9.192;2023-07-20T17:11:48;98112.63;;;27.05;25.03
41140;BME280;26881;48.784;9.192;2023-07-20T17:17:10;98117.59;;;26.88;25.17
41140;BME280;26881;48.784;9.192;2023-07-20T17:22:32;98113.88;;;26.76;25.05
41140;BME280;26881;48.784;9.192;2023-07-20T17:27:54;98121.31;;;26.67;24.63
41140;BME280;26881;48.784;9.192;2023-07-20T17:33:19;98112.19;;;26.48;24.66
41140;BME280;26881;48.784;9.192;2023-07-20T17:38:41;98120.34;;;26.27;24.90
41140;BME280;26881;48.784;9.192;2023-07-20T17:44:05;98120.31;;;26.07;25.38
41140;BME280;26881;48.784;9.192;2023-07-20T17:49:27;98121.06;;;25.88;26.12
41140;BME280;26881;48.784;9.192;2023-07-20T17:54:49;98116.84;;;25.72;25.98
41140;BME280;26881;48.784;9.192;2023-07-20T18:00:11;98122.53;;;25.55;26.52
41140;BME280;26881;48.784;9.192;2023-07-20T18:05:36;98117.09;;;25.42;26.84
41140;BME280;26881;48.784;9.192;2023-07-20T18:11:05;98126.88;;;25.28;26.85
41140;BME280;26881;48.784;9.192;2023-07-20T18:16:27;98118.09;;;25.13;27.51
41140;BME280;26881;48.784;9.192;2023-07-20T18:21:49;98108.53;;;24.97;27.34
41140;BME280;26881;48.784;9.192;2023-07-20T18:27:12;98112.34;;;24.88;28.13
41140;BME280;26881;48.784;9.192;2023-07-20T18:32:35;98119.94;;;24.63;27.56
41140;BME280;26881;48.784;9.192;2023-07-20T18:37:57;98124.59;;;24.54;27.91
41140;BME280;26881;48.784;9.192;2023-07-20T18:43:19;98126.84;;;24.50;28.36
41140;BME280;26881;48.784;9.192;2023-07-20T18:48:41;98119.63;;;24.51;27.72
41140;BME280;26881;48.784;9.192;2023-07-20T18:54:04;98129.50;;;24.35;28.11
41140;BME280;26881;48.784;9.192;2023-07-20T18:59:26;98123.97;;;24.15;27.94
41140;BME280;26881;48.784;9.192;2023-07-20T19:04:47;98129.97;;;24.03;28.65
41140;BME280;26881;48.784;9.192;2023-07-20T19:10:10;98133.31;;;23.90;28.45
41140;BME280;26881;48.784;9.192;2023-07-20T19:15:32;98143.44;;;23.80;28.67
41140;BME280;26881;48.784;9.192;2023-07-20T19:20:58;98145.47;;;23.77;28.90
41140;BME280;26881;48.784;9.192;2023-07-20T19:26:20;98142.34;;;23.74;29.36
41140;BME280;26881;48.784;9.192;2023-07-20T19:31:42;98147.41;;;23.69;29.40
41140;BME280;26881;48.784;9.192;2023-07-20T19:37:04;98156.78;;;23.65;29.40
41140;BME280;26881;48.784;9.192;2023-07-20T19:42:26;98157.72;;;23.57;29.91
41140;BME280;26881;48.784;9.192;2023-07-20T19:47:48;98159.47;;;23.50;30.55
41140;BME280;26881;48.784;9.192;2023-07-20T19:53:10;98172.09;;;22.95;32.32
41140;BME280;26881;48.784;9.192;2023-07-20T19:58:35;98183.06;;;22.77;32.89
41140;BME280;26881;48.784;9.192;2023-07-20T20:03:57;98180.94;;;22.49;33.48
41140;BME280;26881;48.784;9.192;2023-07-20T20:09:22;98172.06;;;22.26;34.03
41140;BME280;26881;48.784;9.192;2023-07-20T20:14:46;98184.81;;;21.99;34.56
41140;BME280;26881;48.784;9.192;2023-07-20T20:20:08;98183.53;;;21.87;35.13
41140;BME280;26881;48.784;9.192;2023-07-20T20:25:31;98185.84;;;21.90;35.05
41140;BME280;26881;48.784;9.192;2023-07-20T20:30:54;98180.72;;;21.80;35.49
41140;BME280;26881;48.784;9.192;2023-07-20T20:36:17;98182.28;;;21.58;36.21
41140;BME280;26881;48.784;9.192;2023-07-20T20:41:39;98186.13;;;21.23;36.96
41140;BME280;26881;48.784;9.192;2023-07-20T20:47:07;98183.69;;;21.05;37.38
41140;BME280;26881;48.784;9.192;2023-07-20T20:52:29;98192.28;;;20.91;37.42
41140;BME280;26881;48.784;9.192;2023-07-20T20:57:52;98190.97;;;20.95;37.50
41140;BME280;26881;48.784;9.192;2023-07-20T21:03:18;98182.16;;;20.94;36.97
41140;BME280;26881;48.784;9.192;2023-07-20T21:08:40;98185.16;;;20.91;37.71
41140;BME280;26881;48.784;9.192;2023-07-20T21:14:02;98185.31;;;20.81;37.79
41140;BME280;26881;48.784;9.192;2023-07-20T21:19:24;98187.13;;;20.56;38.38
41140;BME280;26881;48.784;9.192;2023-07-20T21:24:46;98191.03;;;20.44;38.63
41140;BME280;26881;48.784;9.192;2023-07-20T21:30:09;98194.81;;;20.25;38.69
41140;BME280;26881;48.784;9.192;2023-07-20T21:35:31;98183.50;;;20.23;38.89
41140;BME280;26881;48.784;9.192;2023-07-20T21:40:54;98181.00;;;20.13;39.59
41140;BME280;26881;48.784;9.192;2023-07-20T21:46:16;98183.28;;;20.00;40.22
41140;BME280;26881;48.784;9.192;2023-07-20T21:51:38;98185.69;;;19.85;40.69
41140;BME280;26881;48.784;9.192;2023-07-20T21:56:59;98184.56;;;19.62;41.18
41140;BME280;26881;48.784;9.192;2023-07-20T22:02:21;98190.59;;;19.46;41.59
41140;BME280;26881;48.784;9.192;2023-07-20T22:07:43;98187.38;;;19.34;41.51
41140;BME280;26881;48.784;9.192;2023-07-20T22:13:06;98191.59;;;19.19;42.24
41140;BME280;26881;48.784;9.192;2023-07-20T22:18:28;98183.41;;;19.12;42.39
41140;BME280;26881;48.784;9.192;2023-07-20T22:23:57;98193.34;;;19.10;42.33
41140;BME280;26881;48.784;9.192;2023-07-20T22:29:19;98189.94;;;19.00;42.89
41140;BME280;26881;48.784;9.192;2023-07-20T22:34:41;98192.22;;;18.94;42.88
41140;BME280;26881;48.784;9.192;2023-07-20T22:40:04;98191.19;;;19.13;42.12
41140;BME280;26881;48.784;9.192;2023-07-20T22:45:30;98191.16;;;19.05;42.42
41140;BME280;26881;48.784;9.192;2023-07-20T22:50:53;98193.78;;;19.05;42.91
41140;BME280;26881;48.784;9.192;2023-07-20T22:56:15;98195.84;;;19.11;43.26
41140;BME280;26881;48.784;9.192;2023-07-20T23:01:37;98199.22;;;19.22;43.77
41140;BME280;26881;48.784;9.192;2023-07-20T23:07:05;98196.34;;;19.15;42.91
41140;BME280;26881;48.784;9.192;2023-07-20T23:12:27;98199.00;;;18.97;43.24
41140;BME280;26881;48.784;9.192;2023-07-20T23:17:49;98188.59;;;18.95;43.29
41140;BME280;26881;48.784;9.192;2023-07-20T23:23:10;98191.25;;;18.78;44.25
41140;BME280;26881;48.784;9.192;2023-07-20T23:28:33;98186.31;;;18.65;45.03
41140;BME280;26881;48.784;9.192;2023-07-20T23:33:54;98171.31;;;18.56;45.00
41140;BME280;26881;48.784;9.192;2023-07-20T23:39:16;98167.31;;;18.51;45.31
41140;BME280;26881;48.784;9.192;2023-07-20T23:44:38;98160.94;;;18.44;45.63
41140;BME280;26881;48.784;9.192;2023-07-20T23:50:03;98162.53;;;18.37;45.44
41140;BME280;26881;48.784;9.192;2023-07-20T23:55:25;98161.16;;;18.33;45.45
